ウラジオストク の空港の天気 - METARとTAF

ウラジオストク空港 ( UHWW / VVO ) - ロシア ウラジオストク
飛行場実況気象(Metar)
観測時間01/19 19:00 VLAT (01/19 09:00 UTC)
風向・風速南西 3m/s
視程10km以上
天気現象
なし
気温-9℃
湿度41%
気圧1018hPa
METARUHWW 190900Z 23003MPS 9999 NSC M09/M20 Q1018 R25L/0///70 NOSIG RMK QFE762
過去の天気等 Google飛行場航空写真 Wunderground天気予報

過去48時間のMETAR

飛行場予報(TAF)
発表時間: 1/19 18:00 VLAT (1/19 08:00 UTC)
予報対象時間: 19日19時 VLAT ~ 20日19時 VLAT
風向・風速北 3m/s
視程10km以上
全天の4割程度の雲 雲底高度 910m
19日20時 VLAT ~ 19日22時 VLAT に徐々に
視程5000m
天気現象煙霧
なし
TAF UHWW 190800Z 1909/2009 36003MPS 9999 SCT030
BECMG 1910/1912 5000 HZ NSC